Terminal Aerodrome Forecast
Issued by NWS

Home | Current Version | Previous Version | Text Only | Print | Product List | Glossary On
Versions: 1 2 3 4 5 6 7 8 9 10 11 12 13 14 15 16 17 18
632
FTUS42 KILM 250530
TAFCRE
TAF
KCRE 250530Z 2506/2606 24003KT P6SM OVC100
     FM251000 26007KT P6SM BKN025
     FM251400 25006KT P6SM SCT040 PROB30 2516/2522 3SM TSRA BKN020CB
     FM260000 20004KT P6SM BKN120=

USA.gov is the U.S. government's official web portal to all federal, state and local government web resources and services.